Ansonia, Ohio
Current Conditions -  °F | °C
As of 11:35 AM on Friday 28 Nov 2014 (Local Time) from KVES Reporting Station
Overcast Overcast  
Wind Chill: 18°   Ceiling: 5500
Heat Index: 28°   Visibility: 10mi
Dew Point: 21°   Wind: 12mph
Humidity: 74%   Direction: 220°SW
Pressure: 30.31"   Gusts: 16mph
Location:  40.21°N, 84.64°W
Report Text: KVES 281635Z AUTO 22010G14KT 10SM SCT019 BKN055 OVC080 M02/M06 A3031 RMK AO2
Loading
Personal Weather Stations






























Interactive Weather Map New forecast layout! Learn more

10-Day Weather Forecast

Advertisements
Track Severe Weather on mobile